createdAt,value
2022-11-13T00:00:19.334Z,14.90
2022-11-13T00:03:05.135Z,14.90
2022-11-13T00:06:01.924Z,14.90
2022-11-13T00:08:47.985Z,14.80
2022-11-13T00:11:34.092Z,14.80
2022-11-13T00:14:19.935Z,14.90
2022-11-13T00:17:05.855Z,14.90
2022-11-13T00:19:51.825Z,14.80
2022-11-13T00:22:37.683Z,14.80
2022-11-13T00:25:23.775Z,14.70
2022-11-13T00:28:09.706Z,14.70
2022-11-13T00:31:02.385Z,14.70
2022-11-13T00:36:54.354Z,14.60
2022-11-13T00:39:40.444Z,14.60
2022-11-13T00:42:26.419Z,14.60
2022-11-13T00:45:12.402Z,14.70
2022-11-13T00:47:58.385Z,14.60
2022-11-13T00:50:44.516Z,14.60
2022-11-13T00:53:30.355Z,14.60
2022-11-13T00:56:16.187Z,14.60
2022-11-13T00:59:01.864Z,14.60
2022-11-13T01:01:47.860Z,14.50
2022-11-13T01:04:33.724Z,14.50
2022-11-13T01:07:19.779Z,14.50
2022-11-13T01:10:06.545Z,14.40
2022-11-13T01:12:52.126Z,14.30
2022-11-13T01:15:43.264Z,14.30
2022-11-13T01:18:29.355Z,14.20
2022-11-13T01:21:24.875Z,14.00
2022-11-13T01:24:10.594Z,13.90
2022-11-13T01:26:56.492Z,13.90
2022-11-13T01:29:42.955Z,13.90
2022-11-13T01:32:28.906Z,13.90
2022-11-13T01:35:14.765Z,13.80
2022-11-13T01:38:00.794Z,13.80
2022-11-13T01:40:48.103Z,13.80
2022-11-13T01:43:36.246Z,13.90
2022-11-13T01:46:45.604Z,13.90
2022-11-13T01:49:35.073Z,13.90
2022-11-13T01:52:26.356Z,13.90
2022-11-13T01:55:16.224Z,13.90
2022-11-13T01:58:03.485Z,13.90
2022-11-13T02:00:49.365Z,13.90
2022-11-13T02:03:35.114Z,13.90
2022-11-13T02:06:22.140Z,14.00
2022-11-13T02:09:08.645Z,14.00
2022-11-13T02:11:55.274Z,14.00
2022-11-13T02:14:53.719Z,14.10
2022-11-13T02:17:56.086Z,14.00
2022-11-13T02:21:05.505Z,14.00
2022-11-13T02:24:19.567Z,14.10
2022-11-13T02:27:18.095Z,14.10
2022-11-13T02:30:27.227Z,14.10
2022-11-13T02:33:30.874Z,14.10
2022-11-13T02:36:18.466Z,14.10
2022-11-13T02:39:08.304Z,14.10
2022-11-13T02:41:54.635Z,14.10
2022-11-13T02:44:40.495Z,14.10
2022-11-13T02:47:26.284Z,14.10
2022-11-13T02:50:12.658Z,14.10
2022-11-13T02:52:58.842Z,14.10
2022-11-13T02:55:44.695Z,14.00
2022-11-13T02:58:31.018Z,14.00
2022-11-13T03:01:17.262Z,13.90
2022-11-13T03:04:03.675Z,13.90
2022-11-13T03:06:49.790Z,13.80
2022-11-13T03:09:35.634Z,13.80
2022-11-13T03:12:21.375Z,13.70
2022-11-13T03:15:08.445Z,13.60
2022-11-13T03:17:54.365Z,13.40
2022-11-13T03:20:43.346Z,13.30
2022-11-13T03:23:29.024Z,13.30
2022-11-13T03:26:17.047Z,13.30
2022-11-13T03:29:02.845Z,13.40
2022-11-13T03:31:48.777Z,13.40
2022-11-13T03:34:34.853Z,13.50
2022-11-13T03:37:20.636Z,13.50
2022-11-13T03:40:07.114Z,13.50
2022-11-13T03:42:52.983Z,13.50
2022-11-13T03:45:38.694Z,13.50
2022-11-13T03:48:24.543Z,13.50
2022-11-13T03:51:10.346Z,13.50
2022-11-13T03:53:56.203Z,13.50
2022-11-13T03:56:41.873Z,13.50
2022-11-13T03:59:27.788Z,13.40
2022-11-13T04:02:13.743Z,13.40
2022-11-13T04:04:59.776Z,13.50
2022-11-13T04:07:45.504Z,13.50
2022-11-13T04:10:31.994Z,13.60
2022-11-13T04:13:17.754Z,13.60
2022-11-13T04:16:04.695Z,13.60
2022-11-13T04:18:50.575Z,13.60
2022-11-13T04:21:36.523Z,13.60
2022-11-13T04:24:22.503Z,13.60
2022-11-13T04:27:08.343Z,13.60
2022-11-13T04:29:54.324Z,13.60
2022-11-13T04:32:40.304Z,13.50
2022-11-13T04:35:26.116Z,13.50
2022-11-13T04:38:12.885Z,13.50
2022-11-13T04:41:16.904Z,13.50
2022-11-13T04:44:02.733Z,13.50
2022-11-13T04:46:48.675Z,13.50
2022-11-13T04:49:34.363Z,13.50
2022-11-13T04:52:20.413Z,13.50
2022-11-13T04:55:07.016Z,13.50
2022-11-13T04:57:55.631Z,13.50
2022-11-13T05:00:41.694Z,13.40
2022-11-13T05:03:27.587Z,13.40
2022-11-13T05:06:13.545Z,13.40
2022-11-13T05:08:59.524Z,13.40
2022-11-13T05:11:45.495Z,13.40
2022-11-13T05:14:31.325Z,13.40
2022-11-13T05:17:17.324Z,13.40
2022-11-13T05:20:03.024Z,13.40
2022-11-13T05:22:49.035Z,13.40
2022-11-13T05:25:35.016Z,13.40
2022-11-13T05:28:20.876Z,13.40
2022-11-13T05:31:11.325Z,13.30
2022-11-13T05:34:00.088Z,13.30
2022-11-13T05:36:49.785Z,13.40
2022-11-13T05:39:35.714Z,13.30
2022-11-13T05:42:21.554Z,13.40
2022-11-13T05:45:08.214Z,13.30
2022-11-13T05:47:54.154Z,13.30
2022-11-13T05:50:40.095Z,13.30
2022-11-13T05:53:26.147Z,13.30
2022-11-13T05:56:15.024Z,13.30
2022-11-13T05:59:01.944Z,13.30
2022-11-13T06:01:48.189Z,13.30
2022-11-13T06:04:34.035Z,13.30
2022-11-13T06:07:19.999Z,13.30
2022-11-13T06:10:06.496Z,13.40
2022-11-13T06:12:52.644Z,13.30
2022-11-13T06:15:38.465Z,13.30
2022-11-13T06:18:26.739Z,13.30
2022-11-13T06:21:19.223Z,13.30
2022-11-13T06:24:05.563Z,13.20
2022-11-13T06:26:51.304Z,13.20
2022-11-13T06:29:37.234Z,13.10
2022-11-13T06:32:22.984Z,13.00
2022-11-13T06:35:09.256Z,13.10
2022-11-13T06:37:55.844Z,13.10
2022-11-13T06:40:41.655Z,13.00
2022-11-13T06:43:28.485Z,13.00
2022-11-13T06:46:18.137Z,13.00
2022-11-13T06:49:03.854Z,12.90
2022-11-13T06:51:49.524Z,12.90
2022-11-13T06:54:35.435Z,12.90
2022-11-13T06:57:21.338Z,12.80
2022-11-13T06:59:57.872Z,12.80
2022-11-13T07:02:43.510Z,12.80
2022-11-13T07:05:29.283Z,12.70
2022-11-13T07:08:15.653Z,12.70
2022-11-13T07:11:01.494Z,12.70
2022-11-13T07:13:47.253Z,12.70
2022-11-13T07:16:56.368Z,12.70
2022-11-13T07:19:38.714Z,12.80
2022-11-13T07:22:24.493Z,12.80
2022-11-13T07:25:10.504Z,12.90
2022-11-13T07:27:56.804Z,12.90
2022-11-13T07:30:42.677Z,13.00
2022-11-13T07:33:28.546Z,13.00
2022-11-13T07:36:14.453Z,13.00
2022-11-13T07:39:00.577Z,13.00
2022-11-13T07:41:48.021Z,13.00
2022-11-13T07:44:53.366Z,13.10
2022-11-13T07:47:39.444Z,13.10
2022-11-13T07:50:26.855Z,13.10
2022-11-13T07:53:12.775Z,13.10
2022-11-13T07:56:01.905Z,13.20
2022-11-13T07:58:47.476Z,13.20
2022-11-13T08:01:33.443Z,13.30
2022-11-13T08:04:19.283Z,13.40
2022-11-13T08:07:05.605Z,13.40
2022-11-13T08:09:51.253Z,13.40
2022-11-13T08:12:37.184Z,13.50
2022-11-13T08:15:23.197Z,13.60
2022-11-13T08:18:09.165Z,13.60
2022-11-13T08:20:55.439Z,13.80
2022-11-13T08:23:42.306Z,13.90
2022-11-13T08:26:27.905Z,14.00
2022-11-13T08:29:13.865Z,14.10
2022-11-13T08:31:59.845Z,14.20
2022-11-13T08:34:45.920Z,14.30
2022-11-13T08:37:33.396Z,14.40
2022-11-13T08:40:19.599Z,14.50
2022-11-13T08:43:05.607Z,14.60
2022-11-13T08:45:51.423Z,14.80
2022-11-13T08:48:38.346Z,14.90
2022-11-13T08:51:24.135Z,15.00
2022-11-13T08:54:10.355Z,15.10
2022-11-13T08:56:59.617Z,15.30
2022-11-13T08:59:47.973Z,15.40
2022-11-13T09:02:34.045Z,15.50
2022-11-13T09:05:20.035Z,15.70
2022-11-13T09:08:06.588Z,15.90
2022-11-13T09:10:52.614Z,15.90
2022-11-13T09:13:43.729Z,16.00
2022-11-13T09:16:30.944Z,16.10
2022-11-13T09:19:16.845Z,16.20
2022-11-13T09:22:02.835Z,16.30
2022-11-13T09:24:48.837Z,16.50
2022-11-13T09:27:34.615Z,16.70
2022-11-13T09:30:20.585Z,16.90
2022-11-13T09:33:06.866Z,17.00
2022-11-13T09:35:52.875Z,17.10
2022-11-13T09:38:39.136Z,17.20
2022-11-13T09:41:29.294Z,17.20
2022-11-13T09:44:36.644Z,17.30
2022-11-13T09:47:27.025Z,17.40
2022-11-13T09:50:22.205Z,17.50
2022-11-13T09:53:09.484Z,17.60
2022-11-13T09:56:03.139Z,17.80
2022-11-13T09:59:16.959Z,18.00
2022-11-13T10:02:08.565Z,18.00
2022-11-13T10:05:15.694Z,18.10
2022-11-13T10:08:13.684Z,18.30
2022-11-13T10:11:20.653Z,18.40
2022-11-13T10:14:19.825Z,18.50
2022-11-13T10:17:18.073Z,18.70
2022-11-13T10:20:11.505Z,18.70
2022-11-13T10:23:09.188Z,18.80
2022-11-13T10:25:58.555Z,18.80
2022-11-13T10:28:52.157Z,19.00
2022-11-13T10:31:46.245Z,19.10
2022-11-13T10:34:33.437Z,19.10
2022-11-13T10:37:42.559Z,19.10
2022-11-13T10:40:34.984Z,19.00
2022-11-13T10:43:23.964Z,19.10
2022-11-13T10:46:22.083Z,19.20
2022-11-13T10:49:19.641Z,19.30
2022-11-13T10:52:22.246Z,19.40
2022-11-13T10:55:28.194Z,19.40
2022-11-13T10:58:19.384Z,19.40
2022-11-13T11:01:21.935Z,19.60
2022-11-13T11:04:20.269Z,19.60
2022-11-13T11:07:26.075Z,19.70
2022-11-13T11:10:22.846Z,19.70
2022-11-13T11:13:20.625Z,19.80
2022-11-13T11:16:08.764Z,19.80
2022-11-13T11:19:04.898Z,19.90
2022-11-13T11:21:56.115Z,19.90
2022-11-13T11:25:26.024Z,19.90
2022-11-13T11:28:26.900Z,19.90
2022-11-13T11:31:47.604Z,19.80
2022-11-13T11:34:45.114Z,19.80
2022-11-13T11:37:41.359Z,19.80
2022-11-13T11:40:59.547Z,19.90
2022-11-13T11:43:51.784Z,19.90
2022-11-13T11:46:38.618Z,19.90
2022-11-13T11:49:27.766Z,19.90
2022-11-13T11:52:35.936Z,19.90
2022-11-13T11:55:34.174Z,20.00
2022-11-13T11:58:41.644Z,20.00
2022-11-13T12:01:56.832Z,20.10
2022-11-13T12:05:14.379Z,20.10
2022-11-13T12:08:18.804Z,20.20
2022-11-13T12:11:27.701Z,20.20
2022-11-13T12:14:39.924Z,20.20
2022-11-13T12:17:44.080Z,20.30
2022-11-13T12:20:35.778Z,20.30
2022-11-13T12:23:53.714Z,20.30
2022-11-13T12:27:12.505Z,20.40
2022-11-13T12:30:10.735Z,20.40
2022-11-13T12:33:16.294Z,20.50
2022-11-13T12:36:03.649Z,20.40
2022-11-13T12:39:12.244Z,20.50
2022-11-13T12:42:01.945Z,20.50
2022-11-13T12:44:54.686Z,20.50
2022-11-13T12:47:40.928Z,20.60
2022-11-13T12:50:32.906Z,20.60
2022-11-13T12:53:29.312Z,20.60
2022-11-13T12:56:27.807Z,20.70
2022-11-13T12:59:35.816Z,20.70
2022-11-13T13:02:42.224Z,20.70
2022-11-13T13:05:27.735Z,20.70
2022-11-13T13:08:22.282Z,20.70
2022-11-13T13:11:42.507Z,20.70
2022-11-13T13:15:01.065Z,20.70
2022-11-13T13:17:46.978Z,20.70
2022-11-13T13:20:41.615Z,20.70
2022-11-13T13:23:31.426Z,20.70
2022-11-13T13:26:23.975Z,20.70
2022-11-13T13:29:23.724Z,20.70
2022-11-13T13:32:22.624Z,20.80
2022-11-13T13:35:29.884Z,20.80
2022-11-13T13:38:32.183Z,20.80
2022-11-13T13:41:31.174Z,20.80
2022-11-13T13:44:23.076Z,20.70
2022-11-13T13:47:26.104Z,20.70
2022-11-13T13:50:25.564Z,20.80
2022-11-13T13:53:16.193Z,20.70
2022-11-13T13:56:03.803Z,20.70
2022-11-13T13:58:50.058Z,20.70
2022-11-13T14:01:36.070Z,20.70
2022-11-13T14:04:26.984Z,20.70
2022-11-13T14:07:30.010Z,20.80
2022-11-13T14:10:22.369Z,20.80
2022-11-13T14:13:22.595Z,20.80
2022-11-13T14:16:08.623Z,20.70
2022-11-13T14:19:06.430Z,20.70
2022-11-13T14:22:01.614Z,20.70
2022-11-13T14:24:54.289Z,20.70
2022-11-13T14:27:40.146Z,20.70
2022-11-13T14:30:28.810Z,20.70
2022-11-13T14:33:24.061Z,20.70
2022-11-13T14:36:10.595Z,20.70
2022-11-13T14:38:56.925Z,20.60
2022-11-13T14:41:54.025Z,20.60
2022-11-13T14:44:39.778Z,20.60
2022-11-13T14:47:37.419Z,20.60
2022-11-13T14:50:35.152Z,20.60
2022-11-13T14:53:33.415Z,20.60
2022-11-13T14:56:19.387Z,20.50
2022-11-13T14:59:09.882Z,20.50
2022-11-13T15:01:57.395Z,20.40
2022-11-13T15:04:43.324Z,20.30
2022-11-13T15:07:31.824Z,20.30
2022-11-13T15:10:20.037Z,20.20
2022-11-13T15:13:13.021Z,20.20
2022-11-13T15:15:59.285Z,20.10
2022-11-13T15:18:59.827Z,20.00
2022-11-13T15:22:05.492Z,19.90
2022-11-13T15:24:52.804Z,19.90
2022-11-13T15:27:42.855Z,19.70
2022-11-13T15:30:29.315Z,19.70
2022-11-13T15:33:16.413Z,19.60
2022-11-13T15:36:03.980Z,19.50
2022-11-13T15:38:50.114Z,19.40
2022-11-13T15:41:36.544Z,19.30
2022-11-13T15:44:31.816Z,19.30
2022-11-13T15:47:43.282Z,19.30
2022-11-13T15:50:32.946Z,19.20
2022-11-13T15:53:24.535Z,19.10
2022-11-13T15:56:16.464Z,19.00
2022-11-13T15:59:02.014Z,18.90
2022-11-13T16:02:00.383Z,18.80
2022-11-13T16:04:55.962Z,18.80
2022-11-13T16:07:42.884Z,18.70
2022-11-13T16:10:28.954Z,18.60
2022-11-13T16:13:27.354Z,18.50
2022-11-13T16:16:16.444Z,18.40
2022-11-13T16:19:15.754Z,18.30
2022-11-13T16:22:01.793Z,18.20
2022-11-13T16:25:00.384Z,18.10
2022-11-13T16:27:46.643Z,18.00
2022-11-13T16:30:32.634Z,17.90
2022-11-13T16:33:18.453Z,17.80
2022-11-13T16:36:07.701Z,17.60
2022-11-13T16:38:57.754Z,17.50
2022-11-13T16:41:44.063Z,17.40
2022-11-13T16:44:29.794Z,17.30
2022-11-13T16:47:23.745Z,17.20
2022-11-13T16:50:12.804Z,17.20
2022-11-13T16:52:58.494Z,17.10
2022-11-13T16:55:44.254Z,17.00
2022-11-13T16:58:30.314Z,16.90
2022-11-13T17:01:18.214Z,16.80
2022-11-13T17:04:04.734Z,16.80
2022-11-13T17:06:53.178Z,16.70
2022-11-13T17:09:43.713Z,16.60
2022-11-13T17:12:29.655Z,16.60
2022-11-13T17:15:15.743Z,16.50
2022-11-13T17:18:01.617Z,16.50
2022-11-13T17:20:51.153Z,16.40
2022-11-13T17:23:37.823Z,16.30
2022-11-13T17:26:24.954Z,16.20
2022-11-13T17:29:10.636Z,16.10
2022-11-13T17:31:56.564Z,16.00
2022-11-13T17:34:43.838Z,15.90
2022-11-13T17:37:29.544Z,15.90
2022-11-13T17:40:15.674Z,15.80
2022-11-13T17:43:01.334Z,15.70
2022-11-13T17:45:51.129Z,15.70
2022-11-13T17:48:37.274Z,15.60
2022-11-13T17:51:23.086Z,15.50
2022-11-13T17:54:09.192Z,15.50
2022-11-13T17:56:54.865Z,15.50
2022-11-13T17:59:41.526Z,15.50
2022-11-13T18:02:27.405Z,15.60
2022-11-13T18:05:13.346Z,15.60
2022-11-13T18:07:59.285Z,15.60
2022-11-13T18:10:45.676Z,15.60
2022-11-13T18:13:31.812Z,15.60
2022-11-13T18:16:24.194Z,15.60
2022-11-13T18:19:10.254Z,15.60
2022-11-13T18:21:56.136Z,15.60
2022-11-13T18:24:42.521Z,15.60
2022-11-13T18:27:28.069Z,15.50
2022-11-13T18:30:14.226Z,15.50
2022-11-13T18:33:00.117Z,15.50
2022-11-13T18:35:45.965Z,15.50
2022-11-13T18:38:31.816Z,15.40
2022-11-13T18:41:20.958Z,15.40
2022-11-13T18:44:06.804Z,15.40
2022-11-13T18:46:53.397Z,15.40
2022-11-13T18:49:39.127Z,15.40
2022-11-13T18:52:24.988Z,15.40
2022-11-13T18:55:10.716Z,15.40
2022-11-13T18:57:56.545Z,15.40
2022-11-13T19:00:42.486Z,15.40
2022-11-13T19:03:28.776Z,15.40
2022-11-13T19:06:17.925Z,15.40
2022-11-13T19:09:11.035Z,15.40
2022-11-13T19:11:56.599Z,15.40
2022-11-13T19:14:42.496Z,15.40
2022-11-13T19:17:28.356Z,15.40
2022-11-13T19:20:14.415Z,15.30
2022-11-13T19:23:03.978Z,15.30
2022-11-13T19:25:52.396Z,15.30
2022-11-13T19:28:39.246Z,15.20
2022-11-13T19:31:27.986Z,15.20
2022-11-13T19:34:14.708Z,15.20
2022-11-13T19:37:00.386Z,15.10
2022-11-13T19:39:48.117Z,14.90
2022-11-13T19:42:37.014Z,14.80
2022-11-13T19:45:25.526Z,14.70
2022-11-13T19:48:16.163Z,14.70
2022-11-13T19:51:20.548Z,14.60
2022-11-13T19:54:06.577Z,14.50
2022-11-13T19:56:52.710Z,14.40
2022-11-13T19:59:39.678Z,14.40
2022-11-13T20:02:25.987Z,14.40
2022-11-13T20:05:11.885Z,14.40
2022-11-13T20:07:58.606Z,14.50
2022-11-13T20:10:44.708Z,14.40
2022-11-13T20:14:04.437Z,14.50
2022-11-13T20:16:50.226Z,14.40
2022-11-13T20:19:36.306Z,14.40
2022-11-13T20:22:22.397Z,14.40
2022-11-13T20:25:08.775Z,14.40
2022-11-13T20:27:55.898Z,14.50
2022-11-13T20:30:41.926Z,14.50
2022-11-13T20:33:27.806Z,14.50
2022-11-13T20:36:14.455Z,14.50
2022-11-13T20:39:01.236Z,14.50
2022-11-13T20:41:49.276Z,14.50
2022-11-13T20:44:35.348Z,14.50
2022-11-13T20:47:21.069Z,14.50
2022-11-13T20:50:07.287Z,14.60
2022-11-13T20:52:53.526Z,14.60
2022-11-13T20:55:39.406Z,14.50
2022-11-13T20:58:26.705Z,14.60
2022-11-13T21:01:19.554Z,14.60
2022-11-13T21:04:05.649Z,14.60
2022-11-13T21:06:52.546Z,14.60
2022-11-13T21:09:38.147Z,14.50
2022-11-13T21:12:24.076Z,14.50
2022-11-13T21:15:10.299Z,14.50
2022-11-13T21:17:56.309Z,14.40
2022-11-13T21:20:42.386Z,14.50
2022-11-13T21:23:29.886Z,14.50
2022-11-13T21:26:16.596Z,14.50
2022-11-13T21:29:02.738Z,14.50
2022-11-13T21:31:48.626Z,14.50
2022-11-13T21:34:34.548Z,14.50
2022-11-13T21:37:20.328Z,14.40
2022-11-13T21:40:07.879Z,14.40
2022-11-13T21:42:56.145Z,14.40
2022-11-13T21:45:41.866Z,14.40
2022-11-13T21:48:32.870Z,14.40
2022-11-13T21:51:19.127Z,14.40
2022-11-13T21:54:05.567Z,14.30
2022-11-13T21:56:51.316Z,14.30
2022-11-13T21:59:37.682Z,14.30
2022-11-13T22:02:23.461Z,14.30
2022-11-13T22:05:09.543Z,14.30
2022-11-13T22:07:55.416Z,14.30
2022-11-13T22:10:41.137Z,14.30
2022-11-13T22:13:27.089Z,14.30
2022-11-13T22:16:13.496Z,14.20
2022-11-13T22:19:01.596Z,14.20
2022-11-13T22:21:47.962Z,14.20
2022-11-13T22:24:33.805Z,14.20
2022-11-13T22:27:19.729Z,14.20
2022-11-13T22:30:06.005Z,14.20
2022-11-13T22:32:52.126Z,14.20
2022-11-13T22:35:38.005Z,14.20
2022-11-13T22:38:23.905Z,14.20
2022-11-13T22:41:23.642Z,14.20
2022-11-13T22:44:14.479Z,14.20
2022-11-13T22:47:00.099Z,14.20
2022-11-13T22:49:46.156Z,14.20
2022-11-13T22:52:32.095Z,14.20
2022-11-13T22:55:18.205Z,14.20
2022-11-13T22:58:04.135Z,14.20
2022-11-13T23:00:49.946Z,14.20
2022-11-13T23:03:40.716Z,14.20
2022-11-13T23:06:29.156Z,14.20
2022-11-13T23:09:14.853Z,14.10
2022-11-13T23:12:00.856Z,14.10
2022-11-13T23:14:47.477Z,14.10
2022-11-13T23:17:33.303Z,14.10
2022-11-13T23:20:19.634Z,14.10
2022-11-13T23:23:05.654Z,14.00
2022-11-13T23:25:51.594Z,14.00
2022-11-13T23:28:38.375Z,14.00
2022-11-13T23:31:24.553Z,14.00
2022-11-13T23:34:10.500Z,14.00
2022-11-13T23:36:56.443Z,14.00
2022-11-13T23:39:43.454Z,14.00
2022-11-13T23:42:53.635Z,14.00
2022-11-13T23:45:35.324Z,14.00
2022-11-13T23:48:21.245Z,14.00
2022-11-13T23:51:07.055Z,14.00
2022-11-13T23:53:53.152Z,14.00
2022-11-13T23:56:39.333Z,14.00
2022-11-13T23:59:24.884Z,14.00
